MAPA DE AEROPUERTO

INFORMACIÓN METAR y TAF


Deprecated: The each() function is deprecated. This message will be suppressed on further calls in /home/customer/www/clickair-va.com/public_html/VAM/vam/helpers/get_metar.php on line 20
METAR FOR TNCM
ADDS - METARS form results

(1814 UTC 13 January 2023)
Data provider http://aviationweather.gov/metar/data/
 
METAR text: TNCM 131800Z 08011KT 060V120 9999 FEW018 28/20 Q1016 NOSIG
Conditions at: TNCM (ST MAARTEN JULIA, SX) observed 1800 UTC 13 January 2023
Temperature: 28.0°C (82°F)
Dewpoint: 20.0°C (68°F) [RH = 62%]
Pressure (altimeter): 30.00 inches Hg (1016.0 mb)
Winds: from the E (80 degrees) at 13 MPH (11 knots; 5.7 m/s)
Visibility: 6 or more miles (10+ km)
Ceiling: at least 12,000 feet AGL
Clouds: few clouds at 1800 feet AGL
Weather: no significant weather observed at this time

Forecast for: TNCM (ST MAARTEN JULIA, SX)
Text: TNCM 131600Z 1318/1418 08008KT 9999 FEW020
Forecast period: 1800 UTC 13 January 2023 to 1800 UTC 14 January 2023
Forecast type: FROM: standard forecast or significant change
Winds: from the E (80 degrees) at 9 MPH (8 knots; 4.1 m/s)
Visibility: 6 or more miles (10+ km)
Ceiling: at least 12,000 feet AGL
Clouds: few clouds at 2000 feet AGL
Weather: no significant weather forecast for this period